Time,TemperatureF,DewpointF,PressureIn,WindDirection,WindDirectionDegrees,WindSpeedMPH,WindSpeedGustMPH,Humidity,HourlyPrecipIn,Conditions,Clouds,dailyrainin,SoftwareType,DateUTC
2013-04-17 00:23:00,51.0,48.0,-100.00,North,-999,-999.0,-999.0,88,-99.99,,,-99.99,,2013-04-17 04:23:00,
2013-04-17 00:33:00,51.0,48.0,-100.00,North,-999,-999.0,-999.0,88,-99.99,,,-99.99,,2013-04-17 04:33:00,
2013-04-17 00:42:00,51.0,48.0,-100.00,North,-999,-999.0,-999.0,88,-99.99,,,-99.99,,2013-04-17 04:42:00,
2013-04-17 00:53:00,52.0,49.0,-100.00,North,-999,-999.0,-999.0,88,-99.99,,,-99.99,,2013-04-17 04:53:00,
2013-04-17 01:02:00,52.0,49.0,-100.00,North,-999,-999.0,-999.0,88,-99.99,,,-99.99,,2013-04-17 05:02:00,
2013-04-17 01:12:00,52.0,49.0,-100.00,North,-999,-999.0,-999.0,88,-99.99,,,-99.99,,2013-04-17 05:12:00,
2013-04-17 01:22:00,52.0,49.0,-100.00,North,-999,-999.0,-999.0,88,-99.99,,,-99.99,,2013-04-17 05:22:00,
2013-04-17 01:32:00,52.0,49.0,-100.00,North,-999,-999.0,-999.0,88,-99.99,,,-99.99,,2013-04-17 05:32:00,
2013-04-17 01:43:00,52.0,49.0,-100.00,North,-999,-999.0,-999.0,88,-99.99,,,-99.99,,2013-04-17 05:43:00,
2013-04-17 01:52:00,52.0,49.0,-100.00,North,-999,-999.0,-999.0,89,-99.99,,,-99.99,,2013-04-17 05:52:00,
2013-04-17 02:02:00,52.0,49.0,-100.00,North,-999,-999.0,-999.0,89,-99.99,,,-99.99,,2013-04-17 06:02:00,
2013-04-17 02:12:00,52.0,49.0,-100.00,North,-999,-999.0,-999.0,89,-99.99,,,-99.99,,2013-04-17 06:12:00,
2013-04-17 02:22:00,52.0,49.0,-100.00,North,-999,-999.0,-999.0,90,-99.99,,,-99.99,,2013-04-17 06:22:00,
2013-04-17 02:32:00,52.0,49.0,-100.00,North,-999,-999.0,-999.0,90,-99.99,,,-99.99,,2013-04-17 06:32:00,
2013-04-17 02:42:00,52.0,49.0,-100.00,North,-999,-999.0,-999.0,90,-99.99,,,-99.99,,2013-04-17 06:42:00,
2013-04-17 02:52:00,51.0,49.0,-100.00,North,-999,-999.0,-999.0,92,-99.99,,,-99.99,,2013-04-17 06:52:00,
2013-04-17 03:02:00,51.0,49.0,-100.00,North,-999,-999.0,-999.0,92,-99.99,,,-99.99,,2013-04-17 07:02:00,
2013-04-17 03:12:00,51.0,49.0,-100.00,North,-999,-999.0,-999.0,92,-99.99,,,-99.99,,2013-04-17 07:12:00,
2013-04-17 03:22:00,50.0,47.0,-100.00,North,-999,-999.0,-999.0,91,-99.99,,,-99.99,,2013-04-17 07:22:00,
2013-04-17 03:32:00,50.0,47.0,-100.00,North,-999,-999.0,-999.0,91,-99.99,,,-99.99,,2013-04-17 07:32:00,
2013-04-17 03:42:00,50.0,47.0,-100.00,North,-999,-999.0,-999.0,91,-99.99,,,-99.99,,2013-04-17 07:42:00,
2013-04-17 03:52:00,48.0,43.0,-100.00,North,-999,-999.0,-999.0,84,-99.99,,,-99.99,,2013-04-17 07:52:00,
2013-04-17 04:02:00,48.0,43.0,-100.00,North,-999,-999.0,-999.0,84,-99.99,,,-99.99,,2013-04-17 08:02:00,
2013-04-17 04:12:00,48.0,43.0,-100.00,North,-999,-999.0,-999.0,84,-99.99,,,-99.99,,2013-04-17 08:12:00,
2013-04-17 04:20:00,46.0,42.0,-100.00,North,-999,-999.0,-999.0,85,-99.99,,,-99.99,,2013-04-17 08:20:00,
2013-04-17 04:22:00,46.0,41.0,-100.00,North,-999,-999.0,-999.0,82,-99.99,,,-99.99,,2013-04-17 08:22:00,
2013-04-17 04:32:00,47.0,42.0,-100.00,North,-999,-999.0,-999.0,84,-99.99,,,-99.99,,2013-04-17 08:32:00,
2013-04-17 04:42:00,47.0,42.0,-100.00,North,-999,-999.0,-999.0,84,-99.99,,,-99.99,,2013-04-17 08:42:00,
2013-04-17 04:52:00,46.0,42.0,-100.00,North,-999,-999.0,-999.0,85,-99.99,,,-99.99,,2013-04-17 08:52:00,
2013-04-17 05:02:00,46.0,42.0,-100.00,North,-999,-999.0,-999.0,85,-99.99,,,-99.99,,2013-04-17 09:02:00,
2013-04-17 05:12:00,46.0,42.0,-100.00,North,-999,-999.0,-999.0,85,-99.99,,,-99.99,,2013-04-17 09:12:00,
2013-04-17 05:53:00,45.0,40.0,-100.00,North,-999,-999.0,-999.0,81,-99.99,,,-99.99,,2013-04-17 09:53:00,
2013-04-17 06:03:00,45.0,40.0,-100.00,North,-999,-999.0,-999.0,81,-99.99,,,-99.99,,2013-04-17 10:03:00,
2013-04-17 06:12:00,45.0,40.0,-100.00,North,-999,-999.0,-999.0,81,-99.99,,,-99.99,,2013-04-17 10:12:00,
2013-04-17 06:23:00,44.0,39.0,-100.00,North,-999,-999.0,-999.0,81,-99.99,,,-99.99,,2013-04-17 10:23:00,
2013-04-17 06:33:00,44.0,38.0,-100.00,North,-999,-999.0,-999.0,80,-99.99,,,-99.99,,2013-04-17 10:33:00,
2013-04-17 06:43:00,44.0,38.0,-100.00,North,-999,-999.0,-999.0,80,-99.99,,,-99.99,,2013-04-17 10:43:00,
2013-04-17 06:53:00,44.0,38.0,-100.00,North,-999,-999.0,-999.0,80,-99.99,,,-99.99,,2013-04-17 10:53:00,
2013-04-17 07:02:00,44.0,39.0,-100.00,North,-999,-999.0,-999.0,81,-99.99,,,-99.99,,2013-04-17 11:02:00,
2013-04-17 07:12:00,44.0,39.0,-100.00,North,-999,-999.0,-999.0,81,-99.99,,,-99.99,,2013-04-17 11:12:00,
2013-04-17 07:22:00,43.0,38.0,-100.00,North,-999,-999.0,-999.0,81,-99.99,,,-99.99,,2013-04-17 11:22:00,
2013-04-17 07:32:00,44.0,39.0,-100.00,North,-999,-999.0,-999.0,81,-99.99,,,-99.99,,2013-04-17 11:32:00,
2013-04-17 07:42:00,44.0,39.0,-100.00,North,-999,-999.0,-999.0,81,-99.99,,,-99.99,,2013-04-17 11:42:00,
2013-04-17 07:50:00,46.0,40.0,-100.00,North,-999,-999.0,-999.0,79,-99.99,,,-99.99,,2013-04-17 11:50:00,
2013-04-17 07:52:00,44.0,39.0,-100.00,North,-999,-999.0,-999.0,81,-99.99,,,-99.99,,2013-04-17 11:52:00,
2013-04-17 08:03:00,46.0,40.0,-100.00,North,-999,-999.0,-999.0,79,-99.99,,,-99.99,,2013-04-17 12:03:00,
2013-04-17 08:12:00,46.0,40.0,-100.00,North,-999,-999.0,-999.0,79,-99.99,,,-99.99,,2013-04-17 12:12:00,
2013-04-17 08:22:00,46.0,40.0,-100.00,North,-999,-999.0,-999.0,79,-99.99,,,-99.99,,2013-04-17 12:22:00,
2013-04-17 08:32:00,46.0,40.0,-100.00,North,-999,-999.0,-999.0,79,-99.99,,,-99.99,,2013-04-17 12:32:00,
2013-04-17 08:42:00,46.0,40.0,-100.00,North,-999,-999.0,-999.0,79,-99.99,,,-99.99,,2013-04-17 12:42:00,
2013-04-17 09:22:00,50.0,40.0,-100.00,North,-999,-999.0,-999.0,69,-99.99,,,-99.99,,2013-04-17 13:22:00,
2013-04-17 09:32:00,50.0,40.0,-100.00,North,-999,-999.0,-999.0,69,-99.99,,,-99.99,,2013-04-17 13:32:00,
2013-04-17 09:42:00,50.0,40.0,-100.00,North,-999,-999.0,-999.0,69,-99.99,,,-99.99,,2013-04-17 13:42:00,
2013-04-17 09:52:00,53.0,42.0,-100.00,North,-999,-999.0,-999.0,65,-99.99,,,-99.99,,2013-04-17 13:52:00,
2013-04-17 10:02:00,51.0,39.0,-100.00,North,-999,-999.0,-999.0,64,-99.99,,,-99.99,,2013-04-17 14:02:00,
2013-04-17 10:12:00,51.0,39.0,-100.00,North,-999,-999.0,-999.0,64,-99.99,,,-99.99,,2013-04-17 14:12:00,
2013-04-17 10:22:00,52.0,40.0,-100.00,North,-999,-999.0,-999.0,63,-99.99,,,-99.99,,2013-04-17 14:22:00,
2013-04-17 10:32:00,53.0,40.0,-100.00,North,-999,-999.0,-999.0,61,-99.99,,,-99.99,,2013-04-17 14:32:00,
2013-04-17 10:42:00,53.0,40.0,-100.00,North,-999,-999.0,-999.0,61,-99.99,,,-99.99,,2013-04-17 14:42:00,
2013-04-17 10:52:00,53.0,40.0,-100.00,North,-999,-999.0,-999.0,61,-99.99,,,-99.99,,2013-04-17 14:52:00,
2013-04-17 11:02:00,53.0,40.0,-100.00,North,-999,-999.0,-999.0,61,-99.99,,,-99.99,,2013-04-17 15:02:00,
2013-04-17 11:12:00,54.0,38.0,-100.00,North,-999,-999.0,-999.0,54,-99.99,,,-99.99,,2013-04-17 15:12:00,
2013-04-17 11:22:00,54.0,38.0,-100.00,North,-999,-999.0,-999.0,54,-99.99,,,-99.99,,2013-04-17 15:22:00,
2013-04-17 11:33:00,56.0,38.0,-100.00,North,-999,-999.0,-999.0,50,-99.99,,,-99.99,,2013-04-17 15:33:00,
2013-04-17 11:43:00,56.0,38.0,-100.00,North,-999,-999.0,-999.0,50,-99.99,,,-99.99,,2013-04-17 15:43:00,
2013-04-17 11:53:00,58.0,40.0,-100.00,North,-999,-999.0,-999.0,51,-99.99,,,-99.99,,2013-04-17 15:53:00,
2013-04-17 12:03:00,58.0,40.0,-100.00,North,-999,-999.0,-999.0,51,-99.99,,,-99.99,,2013-04-17 16:03:00,
2013-04-17 12:12:00,58.0,40.0,-100.00,North,-999,-999.0,-999.0,51,-99.99,,,-99.99,,2013-04-17 16:12:00,
2013-04-17 12:23:00,58.0,40.0,-100.00,North,-999,-999.0,-999.0,51,-99.99,,,-99.99,,2013-04-17 16:23:00,
2013-04-17 12:32:00,58.0,37.0,-100.00,North,-999,-999.0,-999.0,45,-99.99,,,-99.99,,2013-04-17 16:32:00,
2013-04-17 12:42:00,58.0,37.0,-100.00,North,-999,-999.0,-999.0,45,-99.99,,,-99.99,,2013-04-17 16:42:00,
2013-04-17 12:52:00,60.0,38.0,-100.00,North,-999,-999.0,-999.0,44,-99.99,,,-99.99,,2013-04-17 16:52:00,
2013-04-17 13:02:00,60.0,38.0,-100.00,North,-999,-999.0,-999.0,44,-99.99,,,-99.99,,2013-04-17 17:02:00,
2013-04-17 13:12:00,60.0,38.0,-100.00,North,-999,-999.0,-999.0,44,-99.99,,,-99.99,,2013-04-17 17:12:00,
2013-04-17 13:22:00,60.0,37.0,-100.00,North,-999,-999.0,-999.0,42,-99.99,,,-99.99,,2013-04-17 17:22:00,
2013-04-17 13:33:00,60.0,37.0,-100.00,North,-999,-999.0,-999.0,42,-99.99,,,-99.99,,2013-04-17 17:33:00,
2013-04-17 13:42:00,60.0,37.0,-100.00,North,-999,-999.0,-999.0,42,-99.99,,,-99.99,,2013-04-17 17:42:00,
2013-04-17 13:52:00,61.0,37.0,-100.00,North,-999,-999.0,-999.0,41,-99.99,,,-99.99,,2013-04-17 17:52:00,
2013-04-17 14:02:00,61.0,35.0,-100.00,North,-999,-999.0,-999.0,38,-99.99,,,-99.99,,2013-04-17 18:02:00,
2013-04-17 14:12:00,61.0,35.0,-100.00,North,-999,-999.0,-999.0,38,-99.99,,,-99.99,,2013-04-17 18:12:00,
2013-04-17 14:22:00,62.0,36.0,-100.00,North,-999,-999.0,-999.0,38,-99.99,,,-99.99,,2013-04-17 18:22:00,
2013-04-17 14:32:00,62.0,36.0,-100.00,North,-999,-999.0,-999.0,38,-99.99,,,-99.99,,2013-04-17 18:32:00,
2013-04-17 14:42:00,62.0,36.0,-100.00,North,-999,-999.0,-999.0,38,-99.99,,,-99.99,,2013-04-17 18:42:00,
2013-04-17 14:52:00,63.0,36.0,-100.00,North,-999,-999.0,-999.0,37,-99.99,,,-99.99,,2013-04-17 18:52:00,
2013-04-17 15:02:00,63.0,36.0,-100.00,North,-999,-999.0,-999.0,37,-99.99,,,-99.99,,2013-04-17 19:02:00,
2013-04-17 15:10:00,64.0,36.0,-100.00,North,-999,-999.0,-999.0,35,-99.99,,,-99.99,,2013-04-17 19:10:00,
2013-04-17 15:12:00,63.0,36.0,-100.00,North,-999,-999.0,-999.0,37,-99.99,,,-99.99,,2013-04-17 19:12:00,
2013-04-17 15:22:00,62.0,34.0,-100.00,North,-999,-999.0,-999.0,35,-99.99,,,-99.99,,2013-04-17 19:22:00,
2013-04-17 15:32:00,64.0,36.0,-100.00,North,-999,-999.0,-999.0,35,-99.99,,,-99.99,,2013-04-17 19:32:00,
2013-04-17 15:42:00,64.0,36.0,-100.00,North,-999,-999.0,-999.0,35,-99.99,,,-99.99,,2013-04-17 19:42:00,
2013-04-17 15:52:00,64.0,36.0,-100.00,North,-999,-999.0,-999.0,35,-99.99,,,-99.99,,2013-04-17 19:52:00,
2013-04-17 16:03:00,64.0,36.0,-100.00,North,-999,-999.0,-999.0,35,-99.99,,,-99.99,,2013-04-17 20:03:00,
2013-04-17 16:22:00,64.0,35.0,-100.00,North,-999,-999.0,-999.0,34,-99.99,,,-99.99,,2013-04-17 20:22:00,
2013-04-17 16:33:00,64.0,35.0,-100.00,North,-999,-999.0,-999.0,34,-99.99,,,-99.99,,2013-04-17 20:33:00,
2013-04-17 16:42:00,64.0,35.0,-100.00,North,-999,-999.0,-999.0,34,-99.99,,,-99.99,,2013-04-17 20:42:00,
2013-04-17 16:52:00,63.0,33.0,-100.00,North,-999,-999.0,-999.0,33,-99.99,,,-99.99,,2013-04-17 20:52:00,
2013-04-17 17:03:00,62.0,34.0,-100.00,North,-999,-999.0,-999.0,35,-99.99,,,-99.99,,2013-04-17 21:03:00,
2013-04-17 17:12:00,62.0,34.0,-100.00,North,-999,-999.0,-999.0,35,-99.99,,,-99.99,,2013-04-17 21:12:00,
2013-04-17 17:22:00,61.0,33.0,-100.00,North,-999,-999.0,-999.0,35,-99.99,,,-99.99,,2013-04-17 21:22:00,
2013-04-17 17:33:00,61.0,33.0,-100.00,North,-999,-999.0,-999.0,35,-99.99,,,-99.99,,2013-04-17 21:33:00,
2013-04-17 17:42:00,61.0,33.0,-100.00,North,-999,-999.0,-999.0,35,-99.99,,,-99.99,,2013-04-17 21:42:00,
2013-04-17 17:53:00,61.0,32.0,-100.00,North,-999,-999.0,-999.0,34,-99.99,,,-99.99,,2013-04-17 21:53:00,
2013-04-17 18:02:00,61.0,33.0,-100.00,North,-999,-999.0,-999.0,35,-99.99,,,-99.99,,2013-04-17 22:02:00,
2013-04-17 18:13:00,61.0,33.0,-100.00,North,-999,-999.0,-999.0,35,-99.99,,,-99.99,,2013-04-17 22:13:00,
2013-04-17 18:22:00,61.0,33.0,-100.00,North,-999,-999.0,-999.0,35,-99.99,,,-99.99,,2013-04-17 22:22:00,
2013-04-17 18:33:00,61.0,33.0,-100.00,North,-999,-999.0,-999.0,35,-99.99,,,-99.99,,2013-04-17 22:33:00,
2013-04-17 18:42:00,61.0,33.0,-100.00,North,-999,-999.0,-999.0,35,-99.99,,,-99.99,,2013-04-17 22:42:00,
2013-04-17 18:53:00,64.0,37.0,-100.00,North,-999,-999.0,-999.0,36,-99.99,,,-99.99,,2013-04-17 22:53:00,
2013-04-17 19:02:00,59.0,33.0,-100.00,North,-999,-999.0,-999.0,37,-99.99,,,-99.99,,2013-04-17 23:02:00,
2013-04-17 19:12:00,57.0,32.0,-100.00,North,-999,-999.0,-999.0,38,-99.99,,,-99.99,,2013-04-17 23:12:00,
2013-04-17 19:22:00,57.0,32.0,-100.00,North,-999,-999.0,-999.0,38,-99.99,,,-99.99,,2013-04-17 23:22:00,
2013-04-17 19:32:00,57.0,32.0,-100.00,North,-999,-999.0,-999.0,38,-99.99,,,-99.99,,2013-04-17 23:32:00,
2013-04-17 19:42:00,54.0,31.0,-100.00,North,-999,-999.0,-999.0,41,-99.99,,,-99.99,,2013-04-17 23:42:00,
2013-04-17 19:52:00,54.0,31.0,-100.00,North,-999,-999.0,-999.0,41,-99.99,,,-99.99,,2013-04-17 23:52:00,
2013-04-17 20:02:00,54.0,31.0,-100.00,North,-999,-999.0,-999.0,41,-99.99,,,-99.99,,2013-04-18 00:02:00,
2013-04-17 20:12:00,54.0,31.0,-100.00,North,-999,-999.0,-999.0,41,-99.99,,,-99.99,,2013-04-18 00:12:00,
2013-04-17 20:22:00,48.0,32.0,-100.00,North,-999,-999.0,-999.0,53,-99.99,,,-99.99,,2013-04-18 00:22:00,
2013-04-17 20:32:00,47.0,31.0,-100.00,North,-999,-999.0,-999.0,54,-99.99,,,-99.99,,2013-04-18 00:32:00,
2013-04-17 20:43:00,45.0,31.0,-100.00,North,-999,-999.0,-999.0,57,-99.99,,,-99.99,,2013-04-18 00:43:00,
2013-04-17 20:52:00,45.0,31.0,-100.00,North,-999,-999.0,-999.0,57,-99.99,,,-99.99,,2013-04-18 00:52:00,
2013-04-17 21:02:00,45.0,30.0,-100.00,North,-999,-999.0,-999.0,55,-99.99,,,-99.99,,2013-04-18 01:02:00,
2013-04-17 21:12:00,44.0,30.0,-100.00,North,-999,-999.0,-999.0,58,-99.99,,,-99.99,,2013-04-18 01:12:00,
2013-04-17 21:22:00,44.0,30.0,-100.00,North,-999,-999.0,-999.0,58,-99.99,,,-99.99,,2013-04-18 01:22:00,
2013-04-17 21:32:00,44.0,30.0,-100.00,North,-999,-999.0,-999.0,58,-99.99,,,-99.99,,2013-04-18 01:32:00,
2013-04-17 21:42:00,43.0,30.0,-100.00,North,-999,-999.0,-999.0,59,-99.99,,,-99.99,,2013-04-18 01:42:00,
2013-04-17 21:52:00,43.0,30.0,-100.00,North,-999,-999.0,-999.0,59,-99.99,,,-99.99,,2013-04-18 01:52:00,
2013-04-17 22:02:00,42.0,30.0,-100.00,North,-999,-999.0,-999.0,63,-99.99,,,-99.99,,2013-04-18 02:02:00,
2013-04-17 22:12:00,42.0,30.0,-100.00,North,-999,-999.0,-999.0,63,-99.99,,,-99.99,,2013-04-18 02:12:00,
2013-04-17 22:22:00,42.0,30.0,-100.00,North,-999,-999.0,-999.0,63,-99.99,,,-99.99,,2013-04-18 02:22:00,
2013-04-17 22:32:00,41.0,30.0,-100.00,North,-999,-999.0,-999.0,64,-99.99,,,-99.99,,2013-04-18 02:32:00,
2013-04-17 22:42:00,41.0,30.0,-100.00,North,-999,-999.0,-999.0,64,-99.99,,,-99.99,,2013-04-18 02:42:00,
2013-04-17 22:52:00,41.0,30.0,-100.00,North,-999,-999.0,-999.0,64,-99.99,,,-99.99,,2013-04-18 02:52:00,
2013-04-17 23:02:00,41.0,30.0,-100.00,North,-999,-999.0,-999.0,65,-99.99,,,-99.99,,2013-04-18 03:02:00,
2013-04-17 23:12:00,39.0,30.0,-100.00,North,-999,-999.0,-999.0,70,-99.99,,,-99.99,,2013-04-18 03:12:00,
2013-04-17 23:22:00,39.0,30.0,-100.00,North,-999,-999.0,-999.0,70,-99.99,,,-99.99,,2013-04-18 03:22:00,
2013-04-17 23:33:00,40.0,30.0,-100.00,North,-999,-999.0,-999.0,68,-99.99,,,-99.99,,2013-04-18 03:33:00,
2013-04-17 23:43:00,40.0,30.0,-100.00,North,-999,-999.0,-999.0,67,-99.99,,,-99.99,,2013-04-18 03:43:00,
2013-04-17 23:53:00,40.0,30.0,-100.00,North,-999,-999.0,-999.0,67,-99.99,,,-99.99,,2013-04-18 03:53:00,